Airfield :
LOGIN :

Register | Disclaimer

   EN    FR    IT 

 










Legend :    VFR   Marginal VFR   IFR   Intensive IFR   Very Intensive IFR
Visi :
Ceiling :
>= 8 km
>= 3000ft
5 to 8 km
1000 to 3000 ft
1500m to 5 km
500 to 1000 ft
800 to 1500m
200 to 500 ft
< 800m
< 200 ft
Symbols :   Thunderstorms  Fog  Heavy snow  Heavy precipitations  Wind > 20 kt
SIGMETs :     Misc.  Thunderstorms  Icing  Turbulence  Mountain Waves  Volcanic Ashes






- Airport Elevation : 1674 ft
- IATA code : BRN


LSZB - Bern Belp

CURRENT METAR :
  • 192220Z AUTO 15003KT 9999 FEW100 02/01 Q1017

EXPIRED METARs :
  • 192150Z AUTO 09002KT 9999 FEW090 BKN110 03/01 Q1017
  • 192120Z AUTO 11002KT 9999 FEW100 OVC110 04/02 Q1017
  • 192050Z AUTO 13003KT 9999 OVC110 04/02 Q1017
  • 192020Z AUTO VRB02KT 9999 FEW095 OVC110 05/01 Q1017
  • 191950Z AUTO VRB01KT 9999 FEW065 BKN110 04/01 Q1017

TAF TAF LSZB
Valid from the 19 at 15:00 until the 20 at 00:00 UTC


191425Z 1915/1924 33006KT 9999 SCT075
ATIS : +41 22 417 40 76



MET'MAP, your aeronautical weather chart ! - Copyright ORBIFLY December 2007 - Disclaimer

ORBIFLY MET'MAP TEAM :

Programming & Development : Alexandra Zaïnal
Concept & original design : Baudouin d'Aumeries
Assistance for programming : Marc-Olivier Méhu
Technical & hardware support : Manuel Goepfert

Contact : metmap@orbifly.com




SOURCES & CREDITS :

   NOAA